Time;durP1;ratioP1;P1;durP2;ratioP2;P2;SDS_P1;SDS_P2;PMS_P1;PMS_P2;Temp;Humidity;BMP_temperature;BMP_pressure;BME280_temperature;BME280_humidity;BME280_pressure;Samples;Min_cycle;Max_cycle;Signal;HPM_P1;HPM_P2
2022/04/25 00:01:55;;;;;;;18.70;10.10;;;6.70;99.90;;;;;;5087417;28;20450;-74
2022/04/25 00:04:21;;;;;;;23.48;10.73;;;6.70;99.90;;;;;;5088735;28;20032;-74
2022/04/25 00:06:46;;;;;;;19.85;10.10;;;6.60;99.90;;;;;;5087945;28;20411;-74
2022/04/25 00:09:12;;;;;;;21.27;10.38;;;6.60;99.90;;;;;;5088748;28;20039;-74
2022/04/25 00:11:37;;;;;;;27.77;11.07;;;6.50;99.90;;;;;;5054544;28;20040;-74
2022/04/25 00:14:06;;;;;;;22.25;11.00;;;6.50;99.90;;;;;;5090046;28;20075;-74
2022/04/25 00:16:32;;;;;;;22.38;11.18;;;6.50;99.90;;;;;;5090182;28;20488;-74
2022/04/25 00:18:59;;;;;;;24.10;10.85;;;6.50;99.90;;;;;;5088392;28;20074;-74
2022/04/25 00:21:25;;;;;;;26.77;11.95;;;6.50;99.90;;;;;;5085996;28;20055;-74
2022/04/25 00:23:51;;;;;;;29.20;12.10;;;6.50;99.90;;;;;;5085547;28;20046;-72
2022/04/25 00:26:17;;;;;;;28.13;12.70;;;6.50;99.90;;;;;;5088467;28;20040;-74
2022/04/25 00:28:42;;;;;;;27.02;12.10;;;6.50;99.90;;;;;;5086790;28;20510;-74
2022/04/25 00:31:08;;;;;;;24.10;11.88;;;6.50;99.90;;;;;;5087136;28;20237;-74
2022/04/25 00:33:34;;;;;;;28.20;12.77;;;6.50;99.90;;;;;;5088438;28;20043;-73
2022/04/25 00:36:00;;;;;;;27.00;13.15;;;6.60;99.90;;;;;;5071510;28;20044;-73
2022/04/25 00:38:25;;;;;;;24.38;11.68;;;6.60;99.90;;;;;;5086525;28;20043;-74
2022/04/25 00:40:51;;;;;;;25.95;12.00;;;6.70;99.90;;;;;;5070186;28;20043;-73
2022/04/25 00:43:16;;;;;;;28.17;12.60;;;6.80;99.90;;;;;;5087356;28;20028;-74
2022/04/25 00:45:42;;;;;;;25.25;12.43;;;6.90;99.90;;;;;;5088627;28;20032;-74
2022/04/25 00:48:07;;;;;;;27.38;13.70;;;6.90;99.90;;;;;;5086149;28;20089;-74
2022/04/25 00:50:33;;;;;;;28.17;14.07;;;7.00;99.90;;;;;;5086252;28;20036;-75
2022/04/25 00:52:59;;;;;;;25.50;13.40;;;7.00;99.90;;;;;;5085496;28;20040;-73
2022/04/25 00:55:24;;;;;;;33.08;14.32;;;7.00;99.90;;;;;;5085494;28;20040;-75
2022/04/25 00:57:56;;;;;;;24.30;12.63;;;7.00;99.90;;;;;;5083340;28;20043;-74
2022/04/25 01:00:22;;;;;;;28.88;14.27;;;7.10;99.90;;;;;;5086283;28;20413;-74
2022/04/25 01:02:48;;;;;;;28.25;12.77;;;7.20;99.90;;;;;;5053339;28;20048;-74
2022/04/25 01:05:13;;;;;;;27.05;13.18;;;7.20;99.90;;;;;;5087580;28;20065;-74
2022/04/25 01:07:39;;;;;;;27.77;13.98;;;7.20;99.90;;;;;;5086917;28;20032;-75
2022/04/25 01:10:07;;;;;;;28.17;13.45;;;7.20;99.90;;;;;;5086442;28;20051;-74
2022/04/25 01:12:32;;;;;;;26.58;13.20;;;7.20;99.90;;;;;;5085790;28;20047;-74
2022/04/25 01:15:00;;;;;;;29.60;14.18;;;7.20;99.90;;;;;;5086532;28;20036;-74
2022/04/25 01:17:26;;;;;;;25.65;13.45;;;7.30;99.90;;;;;;5085978;28;20051;-75
2022/04/25 01:19:52;;;;;;;31.40;14.68;;;7.40;99.90;;;;;;5087914;28;20090;-74
2022/04/25 01:22:24;;;;;;;30.67;15.73;;;7.40;99.90;;;;;;5086417;28;20119;-74
2022/04/25 01:27:34;;;;;;;34.20;15.25;;;7.40;99.90;;;;;;5081451;28;20039;-74
2022/04/25 01:30:00;;;;;;;29.23;15.15;;;7.40;99.90;;;;;;5087179;28;20044;-75
2022/04/25 01:32:25;;;;;;;37.85;16.65;;;7.40;99.90;;;;;;5087045;28;20039;-75
2022/04/25 01:34:52;;;;;;;34.42;15.88;;;7.50;99.90;;;;;;5087145;28;20043;-74
2022/04/25 01:37:18;;;;;;;34.15;16.73;;;7.50;99.90;;;;;;5087376;28;20489;-74
2022/04/25 01:39:49;;;;;;;32.63;15.73;;;7.50;99.90;;;;;;5083470;28;20071;-71
2022/04/25 01:42:16;;;;;;;34.63;17.27;;;7.50;99.90;;;;;;5082942;28;20044;-73
2022/04/25 01:44:41;;;;;;;36.67;16.98;;;7.50;99.90;;;;;;5084718;28;20119;-71
2022/04/25 01:47:07;;;;;;;33.00;16.10;;;7.50;99.90;;;;;;5086788;28;20126;-73
2022/04/25 01:49:34;;;;;;;35.10;16.05;;;7.50;99.90;;;;;;5068399;28;20101;-73
2022/04/25 01:52:03;;;;;;;33.97;18.15;;;7.50;99.90;;;;;;5086731;28;20081;-73
2022/04/25 01:54:32;;;;;;;39.50;17.73;;;7.50;99.90;;;;;;5086588;28;20071;-72
2022/04/25 01:56:58;;;;;;;36.97;17.98;;;7.50;99.90;;;;;;5086136;28;20044;-71
2022/04/25 01:59:23;;;;;;;40.17;18.00;;;7.50;99.90;;;;;;5082558;28;20486;-71
2022/04/25 02:01:50;;;;;;;40.40;18.50;;;7.50;99.90;;;;;;5084995;28;20044;-73
2022/04/25 02:04:16;;;;;;;36.75;17.52;;;7.50;99.90;;;;;;5084679;28;20085;-72
2022/04/25 02:06:41;;;;;;;42.95;19.48;;;7.50;99.90;;;;;;5086883;28;20387;-73
2022/04/25 02:09:08;;;;;;;36.78;18.48;;;7.50;99.90;;;;;;5085775;28;20112;-73
2022/04/25 02:11:34;;;;;;;39.72;18.85;;;7.50;99.90;;;;;;5088091;28;20044;-72
2022/04/25 02:13:59;;;;;;;43.85;19.83;;;7.50;99.90;;;;;;5082523;28;20089;-71
2022/04/25 02:16:26;;;;;;;41.78;19.50;;;7.50;99.90;;;;;;5083721;28;20421;-72
2022/04/25 02:18:52;;;;;;;43.90;19.23;;;7.50;99.90;;;;;;5085671;28;20044;-72
2022/04/25 02:21:18;;;;;;;40.88;20.05;;;7.50;99.90;;;;;;5085815;28;20092;-72
2022/04/25 02:23:44;;;;;;;47.83;20.02;;;7.50;99.90;;;;;;5087438;28;20040;-71
2022/04/25 02:26:10;;;;;;;41.95;19.80;;;7.50;99.90;;;;;;5085808;28;20035;-72
2022/04/25 02:28:37;;;;;;;51.80;22.77;;;7.50;99.90;;;;;;5086717;28;20039;-71
2022/04/25 02:31:04;;;;;;;44.95;21.52;;;7.50;99.90;;;;;;5089307;28;20048;-69
2022/04/25 02:33:31;;;;;;;49.83;22.70;;;7.50;99.90;;;;;;5088763;28;20399;-72
2022/04/25 02:35:56;;;;;;;47.75;22.65;;;7.50;99.90;;;;;;5089866;28;20452;-72
2022/04/25 02:38:22;;;;;;;49.80;23.20;;;7.40;99.90;;;;;;5090567;28;20040;-72
2022/04/25 02:41:04;;;;;;;50.25;22.63;;;7.40;99.90;;;;;;5088337;28;20052;-72
2022/04/25 02:43:34;;;;;;;52.13;22.43;;;7.40;99.90;;;;;;5090223;28;20044;-72
2022/04/25 02:46:00;;;;;;;44.55;21.95;;;7.40;99.90;;;;;;5087752;28;20993;-72
2022/04/25 02:48:26;;;;;;;49.13;23.45;;;7.40;99.90;;;;;;5088042;28;20386;-72
2022/04/25 02:50:52;;;;;;;48.17;23.83;;;7.30;99.90;;;;;;5088820;28;20393;-70
2022/04/25 02:53:17;;;;;;;51.88;23.50;;;7.40;99.90;;;;;;5091397;28;20032;-72
2022/04/25 02:55:43;;;;;;;53.20;23.27;;;7.30;99.90;;;;;;5088081;28;20051;-72
2022/04/25 02:58:08;;;;;;;48.45;23.75;;;7.30;99.90;;;;;;5090393;28;20032;-75
2022/04/25 03:00:34;;;;;;;50.17;23.85;;;7.30;99.90;;;;;;5085970;28;20530;-71
2022/04/25 03:03:00;;;;;;;54.67;24.23;;;7.30;99.90;;;;;;5086089;28;20047;-71
2022/04/25 03:05:26;;;;;;;54.90;24.25;;;7.30;99.90;;;;;;5086270;28;20043;-71
2022/04/25 03:07:51;;;;;;;59.42;24.85;;;7.30;99.90;;;;;;5089499;28;20036;-73
2022/04/25 03:10:17;;;;;;;57.75;23.92;;;7.30;99.90;;;;;;5087048;28;20040;-73
2022/04/25 03:12:42;;;;;;;50.22;23.38;;;7.30;99.90;;;;;;5088892;28;20536;-72
2022/04/25 03:15:08;;;;;;;62.40;24.55;;;7.30;99.90;;;;;;5089518;28;20130;-72
2022/04/25 03:17:34;;;;;;;53.60;23.80;;;7.30;99.90;;;;;;5088906;28;20050;-71
2022/04/25 03:19:59;;;;;;;52.60;24.50;;;7.30;99.90;;;;;;5084549;28;20040;-73
2022/04/25 03:22:25;;;;;;;54.90;24.05;;;7.30;99.90;;;;;;5089785;28;20044;-72
2022/04/25 03:24:51;;;;;;;51.75;24.10;;;7.30;99.90;;;;;;5088563;28;20039;-72
2022/04/25 03:27:16;;;;;;;53.13;24.60;;;7.30;99.90;;;;;;5088484;28;20037;-72
2022/04/25 03:29:42;;;;;;;51.65;23.17;;;7.40;99.90;;;;;;5088451;28;20078;-73
2022/04/25 03:32:07;;;;;;;59.58;24.25;;;7.40;99.90;;;;;;5091323;28;20086;-73
2022/04/25 03:34:37;;;;;;;50.47;23.00;;;7.30;99.90;;;;;;5087083;28;20134;-73
2022/04/25 03:37:03;;;;;;;57.08;24.85;;;7.30;99.90;;;;;;5088778;28;20114;-71
2022/04/25 03:39:29;;;;;;;53.53;23.35;;;7.30;99.90;;;;;;5087507;28;20039;-71
2022/04/25 03:41:55;;;;;;;48.05;23.85;;;7.40;99.90;;;;;;5087816;28;20043;-71
2022/04/25 03:44:21;;;;;;;61.08;24.00;;;7.40;99.90;;;;;;5088545;28;20403;-71
2022/04/25 03:46:47;;;;;;;53.72;23.33;;;7.40;99.90;;;;;;5088011;28;20048;-70
2022/04/25 03:49:13;;;;;;;56.20;24.60;;;7.40;99.90;;;;;;5083699;28;20119;-73
2022/04/25 03:51:39;;;;;;;54.20;23.80;;;7.40;99.90;;;;;;5087963;28;20501;-72
2022/04/25 03:54:05;;;;;;;48.00;22.40;;;7.30;99.90;;;;;;5088578;28;20047;-73
2022/04/25 03:59:14;;;;;;;46.55;23.10;;;7.40;99.90;;;;;;5086883;28;20055;-73
2022/04/25 04:01:40;;;;;;;54.45;24.33;;;7.30;99.90;;;;;;5086119;28;20080;-71
2022/04/25 04:04:06;;;;;;;47.13;23.08;;;7.30;99.90;;;;;;5087658;28;20081;-71
2022/04/25 04:06:32;;;;;;;49.30;23.15;;;7.30;99.90;;;;;;5086358;28;20036;-71
2022/04/25 04:08:58;;;;;;;56.60;23.02;;;7.30;99.90;;;;;;5087165;28;20066;-71
2022/04/25 04:11:46;;;;;;;46.50;22.38;;;7.30;99.90;;;;;;5085599;28;20052;-70
2022/04/25 04:14:09;;;;;;;47.28;21.98;;;7.30;99.90;;;;;;5082205;28;20395;-72
2022/04/25 04:16:35;;;;;;;50.00;23.23;;;7.20;99.90;;;;;;5072948;28;20028;-72
2022/04/25 04:19:00;;;;;;;56.13;23.27;;;7.30;99.90;;;;;;5088123;28;20035;-73
2022/04/25 04:21:26;;;;;;;57.35;23.73;;;7.20;99.90;;;;;;5086153;28;20055;-72
2022/04/25 04:23:51;;;;;;;54.63;23.90;;;7.20;99.90;;;;;;5087565;28;20080;-69
2022/04/25 04:26:17;;;;;;;46.55;22.65;;;7.20;99.90;;;;;;5087869;28;20040;-70
2022/04/25 04:28:42;;;;;;;51.63;21.65;;;7.30;99.90;;;;;;5087582;28;20529;-70
2022/04/25 04:31:08;;;;;;;48.92;21.75;;;7.20;99.90;;;;;;5087194;28;20054;-70
2022/04/25 04:33:33;;;;;;;47.45;22.33;;;7.30;99.90;;;;;;5071981;28;20039;-71
2022/04/25 04:36:17;;;;;;;47.53;20.60;;;7.20;99.90;;;;;;5068647;28;20050;-72
2022/04/25 04:38:43;;;;;;;49.00;21.90;;;7.20;99.90;;;;;;5065276;28;20040;-70
2022/04/25 04:41:09;;;;;;;51.70;22.95;;;7.30;99.90;;;;;;5086398;28;20411;-69
2022/04/25 04:43:35;;;;;;;45.55;21.60;;;7.30;99.90;;;;;;5088547;28;20085;-70
2022/04/25 04:46:00;;;;;;;43.60;21.08;;;7.30;99.90;;;;;;5086646;28;20549;-72
2022/04/25 04:48:26;;;;;;;47.70;21.60;;;7.30;99.90;;;;;;5084913;28;20043;-72
2022/04/25 04:50:55;;;;;;;49.13;21.48;;;7.30;99.90;;;;;;5085934;28;20044;-71
2022/04/25 04:53:21;;;;;;;49.35;21.95;;;7.40;99.90;;;;;;5088822;28;20399;-72
2022/04/25 04:55:47;;;;;;;56.80;22.10;;;7.40;99.90;;;;;;5084854;28;20119;-71
2022/04/25 04:58:13;;;;;;;49.08;20.65;;;7.40;99.90;;;;;;5088662;28;20454;-70
2022/04/25 05:00:44;;;;;;;47.65;20.73;;;7.40;99.90;;;;;;5084031;28;20047;-71
2022/04/25 05:03:13;;;;;;;44.42;20.02;;;7.40;99.90;;;;;;5087939;28;20090;-71
2022/04/25 05:05:40;;;;;;;47.25;21.00;;;7.40;99.90;;;;;;5085218;28;20071;-71
2022/04/25 05:08:05;;;;;;;46.47;20.50;;;7.40;99.90;;;;;;5086967;28;20522;-71
2022/04/25 05:10:31;;;;;;;49.88;21.55;;;7.40;99.90;;;;;;5087492;28;20043;-71
2022/04/25 05:12:57;;;;;;;48.97;20.98;;;7.40;99.90;;;;;;5085982;28;20119;-71
2022/04/25 05:15:23;;;;;;;48.13;20.45;;;7.40;99.90;;;;;;5084580;28;20115;-72
2022/04/25 05:17:52;;;;;;;54.58;20.80;;;7.40;99.90;;;;;;5082282;28;20070;-71
2022/04/25 05:20:20;;;;;;;49.08;21.33;;;7.50;99.90;;;;;;5084835;28;20043;-72
2022/04/25 05:22:47;;;;;;;51.35;21.15;;;7.50;99.90;;;;;;5070311;28;20090;-70
2022/04/25 05:25:18;;;;;;;51.33;20.42;;;7.50;99.90;;;;;;5065347;28;20036;-71
2022/04/25 05:27:46;;;;;;;54.25;20.88;;;7.50;99.90;;;;;;5082603;28;20118;-70
2022/04/25 05:30:13;;;;;;;50.15;21.63;;;7.50;99.90;;;;;;5083262;28;20564;-71
2022/04/25 05:32:42;;;;;;;55.08;21.60;;;7.50;99.90;;;;;;5085075;28;20089;-71
2022/04/25 05:35:08;;;;;;;56.65;21.88;;;7.50;99.90;;;;;;5081380;28;20485;-70
2022/04/25 05:37:34;;;;;;;54.58;20.90;;;7.50;99.90;;;;;;5086146;28;20048;-71
2022/04/25 05:39:59;;;;;;;50.17;21.45;;;7.50;99.90;;;;;;5085358;28;20109;-71
2022/04/25 05:42:25;;;;;;;45.95;20.73;;;7.50;99.90;;;;;;5085182;28;20474;-71
2022/04/25 05:44:50;;;;;;;47.03;20.67;;;7.50;99.90;;;;;;5087094;28;20044;-71
2022/04/25 05:47:16;;;;;;;49.22;21.65;;;7.50;99.90;;;;;;5085790;28;20036;-71
2022/04/25 05:52:46;;;;;;;53.25;21.58;;;7.60;99.90;;;;;;5027149;28;20271;-70
2022/04/25 05:55:11;;;;;;;43.60;20.63;;;7.60;99.90;;;;;;5022628;28;20037;-70
2022/04/25 05:57:37;;;;;;;45.95;22.05;;;7.60;99.90;;;;;;5052088;28;20048;-71
2022/04/25 06:00:05;;;;;;;50.55;21.15;;;7.70;99.90;;;;;;5086946;28;20048;-70
2022/04/25 06:02:31;;;;;;;52.05;20.23;;;7.70;99.90;;;;;;5082239;28;20162;-70
2022/04/25 06:04:56;;;;;;;44.80;20.10;;;7.80;99.90;;;;;;5087779;28;20167;-72
2022/04/25 06:07:22;;;;;;;44.95;19.95;;;7.80;99.90;;;;;;5086717;28;20032;-71
2022/04/25 06:09:47;;;;;;;48.45;19.67;;;7.90;99.90;;;;;;5089624;28;20079;-70
2022/04/25 06:12:13;;;;;;;42.80;18.40;;;7.90;99.90;;;;;;5088413;28;20478;-68
2022/04/25 06:14:40;;;;;;;33.78;17.10;;;7.90;99.90;;;;;;5089109;28;20028;-71
2022/04/25 06:17:06;;;;;;;40.38;18.48;;;7.80;99.90;;;;;;5088898;28;20043;-69
2022/04/25 06:19:32;;;;;;;36.80;18.33;;;7.80;99.90;;;;;;5090039;28;20452;-71
2022/04/25 06:21:58;;;;;;;41.60;18.23;;;7.80;99.90;;;;;;5089175;28;20044;-69
2022/04/25 06:24:23;;;;;;;38.63;17.23;;;7.90;99.90;;;;;;5091165;28;20105;-71
2022/04/25 06:26:49;;;;;;;35.97;17.63;;;7.90;99.90;;;;;;5090257;28;20079;-70
2022/04/25 06:29:16;;;;;;;41.33;18.05;;;7.90;99.90;;;;;;5087002;28;20028;-70
2022/04/25 06:31:42;;;;;;;40.30;17.48;;;8.00;99.90;;;;;;5089494;28;20075;-72
2022/04/25 06:34:08;;;;;;;37.45;17.83;;;8.10;99.90;;;;;;5088047;28;20079;-71
2022/04/25 06:36:34;;;;;;;41.03;18.45;;;8.20;99.90;;;;;;5072904;28;20074;-71
2022/04/25 06:39:02;;;;;;;38.83;18.63;;;8.20;99.90;;;;;;5089449;28;20063;-70
2022/04/25 06:41:27;;;;;;;39.60;18.05;;;8.30;99.90;;;;;;5090566;28;20143;-71
2022/04/25 06:43:53;;;;;;;41.70;18.70;;;8.30;99.90;;;;;;5089573;28;20573;-70
2022/04/25 06:46:18;;;;;;;42.00;19.23;;;8.30;99.90;;;;;;5065387;28;20036;-72
2022/04/25 06:49:19;;;;;;;42.75;18.63;;;8.30;99.90;;;;;;5088961;28;20479;-70
2022/04/25 06:51:30;;;;;;;38.05;17.90;;;8.20;99.90;;;;;;5090600;28;20108;-68
2022/04/25 06:53:56;;;;;;;46.35;18.30;;;8.30;99.90;;;;;;5088365;28;20044;-71
2022/04/25 06:56:22;;;;;;;38.55;18.17;;;8.30;99.90;;;;;;5090286;28;20443;-71
2022/04/25 06:58:47;;;;;;;43.13;17.40;;;8.30;99.90;;;;;;5090468;28;20043;-70
2022/04/25 07:01:14;;;;;;;44.67;18.42;;;8.30;99.90;;;;;;5088570;28;20494;-71
2022/04/25 07:03:40;;;;;;;44.13;18.33;;;8.40;99.90;;;;;;5088720;28;20036;-70
2022/04/25 07:06:05;;;;;;;42.22;18.73;;;8.40;99.90;;;;;;5089467;28;20055;-71
2022/04/25 07:08:32;;;;;;;48.58;19.25;;;8.40;99.90;;;;;;5090409;28;20046;-71
2022/04/25 07:10:57;;;;;;;43.97;19.15;;;8.50;99.90;;;;;;5089573;28;20526;-71
2022/04/25 07:13:23;;;;;;;46.17;18.98;;;8.50;99.90;;;;;;5090059;28;20040;-70
2022/04/25 07:15:48;;;;;;;48.38;19.33;;;8.60;99.90;;;;;;5088952;28;20032;-70
2022/04/25 07:18:15;;;;;;;46.75;20.60;;;8.60;99.90;;;;;;5090058;28;20131;-71
2022/04/25 07:20:41;;;;;;;45.28;19.95;;;8.50;99.90;;;;;;5088627;28;20044;-71
2022/04/25 07:28:49;;;;;;;44.53;20.23;;;8.50;99.90;;;;;;5090361;28;20420;-72
2022/04/25 07:31:16;;;;;;;49.28;20.27;;;8.40;99.90;;;;;;5089159;28;20044;-72
2022/04/25 07:33:43;;;;;;;40.47;18.92;;;8.40;99.90;;;;;;5071465;28;20071;-69
2022/04/25 07:36:12;;;;;;;45.83;20.15;;;8.40;99.90;;;;;;5082641;28;20123;-70
2022/04/25 07:38:39;;;;;;;42.25;19.02;;;8.30;99.90;;;;;;5072303;28;20471;-71
2022/04/25 07:41:06;;;;;;;44.78;19.70;;;8.30;99.90;;;;;;5088429;28;20040;-70
2022/04/25 07:43:32;;;;;;;50.20;19.95;;;8.30;99.90;;;;;;5089122;28;20039;-70
2022/04/25 07:45:57;;;;;;;45.75;20.05;;;8.30;99.90;;;;;;5088888;28;20040;-69
2022/04/25 07:48:25;;;;;;;48.08;19.42;;;8.20;99.90;;;;;;5087456;28;20650;-70
2022/04/25 07:50:50;;;;;;;47.55;20.13;;;8.30;99.90;;;;;;5088324;28;20054;-70
2022/04/25 07:53:16;;;;;;;43.97;20.17;;;8.30;99.90;;;;;;5089449;28;20036;-70
2022/04/25 07:55:41;;;;;;;45.15;19.83;;;8.30;99.90;;;;;;5087564;28;20494;-71
2022/04/25 07:58:10;;;;;;;37.75;16.92;;;8.30;99.90;;;;;;5090370;28;20047;-68
2022/04/25 08:00:38;;;;;;;43.10;19.60;;;8.40;99.90;;;;;;5089825;28;20036;-69
2022/04/25 08:03:04;;;;;;;43.22;18.60;;;8.30;99.90;;;;;;5088264;28;20032;-70
2022/04/25 08:05:30;;;;;;;39.67;18.67;;;8.40;99.90;;;;;;5081745;28;20916;-70
2022/04/25 08:07:55;;;;;;;44.97;18.60;;;8.30;99.90;;;;;;5087866;28;20032;-70
2022/04/25 08:10:21;;;;;;;39.70;18.70;;;8.30;99.90;;;;;;5083191;28;20441;-70
2022/04/25 08:18:14;;;;;;;44.60;18.55;;;8.20;99.90;;;;;;5081808;28;20055;-70
2022/04/25 08:20:41;;;;;;;41.97;18.08;;;8.20;99.90;;;;;;5087523;28;20036;-70
2022/04/25 08:23:11;;;;;;;42.28;19.08;;;8.10;99.90;;;;;;5087214;28;20043;-68
2022/04/25 08:25:41;;;;;;;36.53;18.48;;;8.10;99.90;;;;;;5084477;28;20040;-67
2022/04/25 08:28:07;;;;;;;39.15;19.08;;;8.10;99.90;;;;;;5085329;28;20040;-69
2022/04/25 08:30:33;;;;;;;39.92;19.55;;;7.90;99.90;;;;;;5086446;28;20046;-68
2022/04/25 08:33:00;;;;;;;40.60;18.60;;;7.90;99.90;;;;;;5070876;28;20384;-66
2022/04/25 08:35:27;;;;;;;37.42;18.38;;;7.90;99.90;;;;;;5088438;28;20461;-67
2022/04/25 08:37:54;;;;;;;48.22;18.58;;;7.90;99.90;;;;;;5083785;28;20156;-68
2022/04/25 08:40:21;;;;;;;38.45;18.40;;;7.90;99.90;;;;;;5080027;28;20040;-66
2022/04/25 08:42:47;;;;;;;38.85;18.20;;;7.90;99.90;;;;;;5077542;28;20054;-66
2022/04/25 08:45:13;;;;;;;39.20;18.05;;;7.90;99.90;;;;;;5087885;28;20043;-66
2022/04/25 08:47:58;;;;;;;41.65;18.02;;;7.90;99.90;;;;;;5087337;28;20041;-67
2022/04/25 08:50:26;;;;;;;35.75;17.17;;;7.90;99.90;;;;;;5088167;28;20486;-66
2022/04/25 08:52:53;;;;;;;38.63;18.23;;;7.90;99.90;;;;;;5083977;28;20063;-67
2022/04/25 08:55:19;;;;;;;41.67;18.02;;;7.90;99.90;;;;;;5103489;28;20051;-67
2022/04/25 08:57:45;;;;;;;42.72;18.45;;;8.00;99.90;;;;;;5086183;28;20040;-68
2022/04/25 09:00:12;;;;;;;41.58;18.80;;;7.90;99.90;;;;;;5085492;28;20134;-67
2022/04/25 09:02:41;;;;;;;37.92;17.90;;;8.00;99.90;;;;;;5085724;28;20036;-66
2022/04/25 09:05:08;;;;;;;39.53;18.65;;;8.00;99.90;;;;;;5084447;28;20036;-67
2022/04/25 09:07:37;;;;;;;42.15;18.30;;;8.00;99.90;;;;;;5086821;28;20097;-67
2022/04/25 09:10:11;;;;;;;39.15;18.33;;;8.10;99.90;;;;;;5084271;28;20031;-67
2022/04/25 09:12:38;;;;;;;34.78;18.00;;;8.10;99.90;;;;;;5085325;28;20100;-67
2022/04/25 09:15:05;;;;;;;41.78;18.23;;;8.10;99.90;;;;;;5082813;28;20390;-67
2022/04/25 09:17:32;;;;;;;40.33;19.35;;;8.10;99.90;;;;;;5086981;28;20036;-68
2022/04/25 09:19:58;;;;;;;41.50;20.27;;;8.20;99.90;;;;;;5083972;28;20054;-68
2022/04/25 09:22:36;;;;;;;39.03;18.10;;;8.20;99.90;;;;;;5085455;28;20117;-67
2022/04/25 09:25:08;;;;;;;41.88;18.90;;;8.20;99.90;;;;;;5085779;28;20032;-67
2022/04/25 09:27:34;;;;;;;44.35;19.65;;;8.20;99.90;;;;;;5081887;28;20040;-67
2022/04/25 09:30:20;;;;;;;47.60;19.98;;;8.30;99.90;;;;;;5083875;28;20047;-67
2022/04/25 09:32:49;;;;;;;42.03;19.77;;;8.30;99.90;;;;;;5084886;28;20086;-67
2022/04/25 09:35:26;;;;;;;39.55;18.58;;;8.30;99.90;;;;;;5083144;28;20028;-67
2022/04/25 09:37:51;;;;;;;41.53;19.23;;;8.40;99.90;;;;;;5085573;28;20075;-67
2022/04/25 09:40:22;;;;;;;42.30;19.80;;;8.40;99.90;;;;;;5090612;28;20087;-68
2022/04/25 09:43:03;;;;;;;45.63;20.20;;;8.50;99.90;;;;;;5088884;28;20391;-67
2022/04/25 09:45:29;;;;;;;39.63;20.08;;;8.40;99.90;;;;;;5089478;28;20123;-67
2022/04/25 09:47:55;;;;;;;45.30;19.95;;;8.50;99.90;;;;;;5089344;28;20047;-67
2022/04/25 09:50:20;;;;;;;47.10;20.83;;;8.50;99.90;;;;;;5088252;28;20067;-67
2022/04/25 09:53:02;;;;;;;49.75;21.55;;;8.60;99.90;;;;;;5083370;28;20079;-65
2022/04/25 09:55:33;;;;;;;46.78;20.58;;;8.70;99.90;;;;;;5045226;28;20045;-67
2022/04/25 09:58:12;;;;;;;42.83;20.27;;;8.60;99.90;;;;;;5050209;28;20051;-66
2022/04/25 10:00:38;;;;;;;46.78;20.90;;;8.70;99.90;;;;;;5047084;28;20045;-66
2022/04/25 10:03:07;;;;;;;46.65;20.13;;;8.70;99.90;;;;;;5055743;28;21403;-69
2022/04/25 10:05:53;;;;;;;45.40;19.23;;;8.80;99.90;;;;;;5046979;28;20037;-68
2022/04/25 10:08:19;;;;;;;41.28;20.13;;;8.80;99.90;;;;;;5057931;28;20041;-67
2022/04/25 10:10:47;;;;;;;44.47;20.70;;;8.90;99.90;;;;;;5048202;28;20032;-66
2022/04/25 10:13:14;;;;;;;40.67;19.90;;;8.90;99.90;;;;;;5051956;28;20510;-67
2022/04/25 10:15:41;;;;;;;41.17;18.98;;;9.00;99.90;;;;;;5049152;28;20036;-68
2022/04/25 10:18:07;;;;;;;35.10;17.23;;;9.10;99.90;;;;;;5049070;28;20036;-67
2022/04/25 10:20:36;;;;;;;36.42;17.50;;;9.10;99.90;;;;;;5048716;28;20045;-66
2022/04/25 10:23:10;;;;;;;37.58;18.55;;;9.00;99.90;;;;;;5049964;28;20473;-67
2022/04/25 10:25:38;;;;;;;33.67;16.45;;;9.00;99.90;;;;;;5050993;28;20029;-67
2022/04/25 10:28:11;;;;;;;37.60;17.38;;;9.00;99.90;;;;;;5051339;28;20448;-67
2022/04/25 10:30:39;;;;;;;36.65;17.92;;;9.00;99.90;;;;;;5045358;28;20033;-67
2022/04/25 10:33:20;;;;;;;35.28;17.10;;;9.00;99.90;;;;;;5048915;28;20091;-67
2022/04/25 10:35:50;;;;;;;37.70;17.92;;;9.10;99.90;;;;;;5049430;28;20036;-67
2022/04/25 10:38:50;;;;;;;35.05;16.83;;;9.10;99.90;;;;;;5047678;28;20041;-67
2022/04/25 10:44:16;;;;;;;30.40;16.00;;;9.30;99.90;;;;;;5064395;28;20044;-67
2022/04/25 10:47:07;;;;;;;34.92;16.17;;;9.40;99.90;;;;;;5049565;28;20120;-66
2022/04/25 10:49:45;;;;;;;39.58;17.48;;;9.50;99.90;;;;;;5048454;28;20544;-69
2022/04/25 10:55:34;;;;;;;36.97;17.38;;;9.60;99.90;;;;;;5047561;28;20490;-69
2022/04/25 10:58:03;;;;;;;;;;;9.60;99.90;;;;;;5044658;28;21284;-69
2022/04/25 11:00:37;;;;;;;34.53;16.58;;;9.60;99.90;;;;;;5047710;28;19921;-68
2022/04/25 11:03:04;;;;;;;35.10;16.15;;;9.60;99.90;;;;;;5041431;28;20055;-67
2022/04/25 11:05:29;;;;;;;38.50;17.45;;;9.60;99.90;;;;;;5055694;28;20396;-68
2022/04/25 11:08:23;;;;;;;36.10;15.77;;;9.60;99.90;;;;;;5058042;28;20036;-68
2022/04/25 11:10:54;;;;;;;34.05;16.02;;;9.60;99.90;;;;;;5068908;28;20097;-69
2022/04/25 11:13:20;;;;;;;29.63;14.80;;;9.70;99.90;;;;;;5070800;28;20399;-68
2022/04/25 11:15:46;;;;;;;28.85;15.75;;;9.70;99.90;;;;;;5053829;28;20167;-67
2022/04/25 11:18:34;;;;;;;34.45;16.15;;;9.80;99.90;;;;;;5050432;28;20044;-67
2022/04/25 11:21:11;;;;;;;29.80;15.30;;;9.90;99.90;;;;;;5049312;28;20045;-67
2022/04/25 11:23:43;;;;;;;30.80;15.30;;;9.90;99.90;;;;;;5050457;28;20041;-67
2022/04/25 11:26:11;;;;;;;33.50;15.52;;;10.00;99.90;;;;;;5045372;28;20039;-68
2022/04/25 11:31:23;;;;;;;29.65;14.82;;;10.30;99.90;;;;;;5057726;28;336002;-70
2022/04/25 11:33:50;;;;;;;27.58;14.63;;;10.30;99.90;;;;;;5027787;28;20053;-69
2022/04/25 11:36:18;;;;;;;29.98;15.18;;;10.40;99.90;;;;;;5051306;28;20060;-69
2022/04/25 11:41:33;;;;;;;28.77;14.05;;;10.60;99.90;;;;;;5043156;28;20059;-69
2022/04/25 11:43:58;;;;;;;32.50;14.32;;;10.80;99.90;;;;;;5049887;28;20036;-68
2022/04/25 11:46:25;;;;;;;29.83;14.07;;;10.90;99.90;;;;;;5051038;28;20400;-69
2022/04/25 11:48:52;;;;;;;27.10;13.73;;;11.10;99.90;;;;;;5033322;28;20496;-69
2022/04/25 11:51:29;;;;;;;26.77;13.85;;;11.30;99.90;;;;;;5046828;28;20323;-68
2022/04/25 11:54:00;;;;;;;29.40;14.52;;;11.50;99.90;;;;;;5046357;28;20124;-68
2022/04/25 11:56:30;;;;;;;26.73;13.70;;;11.70;99.90;;;;;;5049484;28;20041;-71
2022/04/25 11:58:57;;;;;;;28.20;14.40;;;11.90;99.90;;;;;;5048988;28;20043;-70
2022/04/25 12:01:33;;;;;;;24.63;13.88;;;12.00;99.90;;;;;;5048870;28;20048;-68
2022/04/25 12:04:23;;;;;;;27.50;14.82;;;12.10;99.90;;;;;;5049216;28;20488;-68
2022/04/25 12:06:52;;;;;;;24.48;14.55;;;12.20;99.90;;;;;;5049219;28;20076;-72
2022/04/25 12:17:49;;;;;;;29.10;15.57;;;12.20;99.90;;;;;;5046294;28;20056;-68
2022/04/25 12:20:17;;;;;;;24.98;14.60;;;12.20;99.90;;;;;;5031190;28;20087;-70
2022/04/25 12:22:59;;;;;;;26.13;14.68;;;12.30;99.90;;;;;;5049207;28;20167;-69
2022/04/25 12:25:29;;;;;;;26.98;15.18;;;12.40;99.90;;;;;;5050139;28;20041;-69
2022/04/25 12:28:12;;;;;;;27.42;15.57;;;12.30;99.90;;;;;;5047992;28;20052;-70
2022/04/25 12:31:04;;;;;;;26.80;15.25;;;12.30;99.90;;;;;;5047006;28;20480;-68
2022/04/25 12:33:43;;;;;;;26.90;15.20;;;12.40;99.90;;;;;;5044355;28;20091;-68
2022/04/25 12:36:12;;;;;;;27.88;15.80;;;12.40;99.90;;;;;;5032955;28;20045;-70
2022/04/25 12:38:41;;;;;;;28.77;15.45;;;12.40;99.90;;;;;;5041741;28;20514;-68
2022/04/25 12:41:08;;;;;;;29.73;15.20;;;12.40;99.90;;;;;;5044122;28;20091;-69
2022/04/25 12:43:36;;;;;;;27.02;15.55;;;12.40;99.90;;;;;;5049671;28;20048;-69
2022/04/25 12:46:02;;;;;;;26.92;15.25;;;12.40;99.90;;;;;;5044442;28;20433;-71
2022/04/25 12:48:28;;;;;;;26.33;14.05;;;12.40;99.90;;;;;;5054939;28;20044;-76
2022/04/25 12:50:53;;;;;;;28.65;15.43;;;12.30;99.90;;;;;;5051560;28;20589;-76
2022/04/25 12:53:39;;;;;;;26.52;14.50;;;12.40;99.90;;;;;;5050740;28;20033;-73
2022/04/25 12:56:04;;;;;;;26.63;15.45;;;12.30;99.90;;;;;;5048212;28;20725;-76
2022/04/25 12:58:34;;;;;;;30.77;15.15;;;12.30;99.90;;;;;;5044828;28;20059;-74
2022/04/25 13:00:59;;;;;;;27.13;15.40;;;12.30;99.90;;;;;;5052116;28;20128;-75
2022/04/25 13:03:26;;;;;;;28.42;15.73;;;12.20;99.90;;;;;;5050924;28;20137;-76
2022/04/25 13:05:53;;;;;;;25.92;15.02;;;12.20;99.90;;;;;;5049883;28;20045;-78
2022/04/25 13:08:19;;;;;;;26.38;15.35;;;12.30;99.90;;;;;;5049819;28;20403;-71
2022/04/25 13:10:52;;;;;;;27.02;14.93;;;12.30;99.90;;;;;;5042431;28;20051;-74
2022/04/25 13:13:18;;;;;;;26.23;14.43;;;12.40;99.90;;;;;;5048198;28;20517;-74
2022/04/25 13:15:47;;;;;;;27.67;14.00;;;12.50;99.90;;;;;;5048891;28;20080;-74
2022/04/25 13:18:13;;;;;;;34.28;15.20;;;12.70;99.90;;;;;;5046521;28;20119;-76
2022/04/25 13:20:38;;;;;;;23.92;14.70;;;12.90;99.90;;;;;;5044168;28;20123;-81